Terminal Aerodrome Forecast
Issued by NWS Wilmington, OH

Current Version | Previous Version | Text Only | Print | Product List | Glossary Off
Versions: 1 2 3 4 5 6 7 8 9 10 11 12 13 14 15 16 17 18 19 20 21 22 23 24 25 26 27 28 29 30

000
FTUS41 KILN 162217 AAB
TAFCVG
TAF AMD
KCVG 162217Z 1622/1724 14004KT 2SM -SHRA BR OVC004
     FM170600 16007KT 2SM -SHRA BR OVC004 WS020/20035KT
     FM171500 21010KT P6SM SCT006 OVC012
     FM171800 25011G18KT P6SM BKN020 BKN080=

USA.gov is the U.S. government's official web portal to all federal, state and local government web resources and services.